Portada
METAR-TAF:

METAR-TAF

Aeropuertos :

Matam, Senegal

latitud: 15-39N, longitud: 013-15W, altitud: 15 m

Observación

El informe se hizo hace 3 horas y 55 minutos, a las 00:00 UTC
Viento 6 kt del este
Temperatura 27°C
Humedad 23%
Presión 1014 hPa
Visibilidad 10 km o más
sin nubes por debajo de 1500 m y sin presencia de cumulonimbus.

METAR: GOSM 230000Z 08006KT CAVOK 27/04 Q1014

Hora: 03:55 (03:55 UTC)


TAF: falta

Observaciones y pronósticos meteorológicos de más de 4000 aeropuertos (mensajes METAR y TAF).

Los puntos amarillos y rojos representan las estaciones disponibles.

Ponga el ratón en el punto deseado para ver el nombre de la estación.

Haga clic para ver las observaciones y los pronósticos meteorológicos.

Para cambiar el mapa : haga clic en los botones verdes con una cruz de color negro para hacer un zoom, en el botón verde con un guión para alejar o en las flechas verdes para mapas adyacentes.


METAR-TAF: